sensor_id;sensor_type;location;lat;lon;timestamp;P1;durP1;ratioP1;P2;durP2;ratioP2
56401;SDS011;42299;35.160;26.100;2023-12-07T00:04:56;5.60;;;2.95;;
56401;SDS011;42299;35.160;26.100;2023-12-07T00:10:18;11.15;;;3.67;;
56401;SDS011;42299;35.160;26.100;2023-12-07T00:15:42;10.85;;;3.70;;
56401;SDS011;42299;35.160;26.100;2023-12-07T00:21:07;6.10;;;2.70;;
56401;SDS011;42299;35.160;26.100;2023-12-07T00:26:30;5.28;;;3.10;;
56401;SDS011;42299;35.160;26.100;2023-12-07T00:31:53;5.43;;;3.60;;
56401;SDS011;42299;35.160;26.100;2023-12-07T00:37:16;8.43;;;3.60;;
56401;SDS011;42299;35.160;26.100;2023-12-07T00:42:38;5.93;;;2.33;;
56401;SDS011;42299;35.160;26.100;2023-12-07T00:48:02;8.18;;;2.92;;
56401;SDS011;42299;35.160;26.100;2023-12-07T00:53:26;10.13;;;4.80;;
56401;SDS011;42299;35.160;26.100;2023-12-07T00:58:48;6.82;;;3.15;;
56401;SDS011;42299;35.160;26.100;2023-12-07T01:04:13;5.88;;;2.75;;
56401;SDS011;42299;35.160;26.100;2023-12-07T01:09:35;4.40;;;3.00;;
56401;SDS011;42299;35.160;26.100;2023-12-07T01:14:57;5.55;;;2.72;;
56401;SDS011;42299;35.160;26.100;2023-12-07T01:20:21;8.75;;;3.00;;
56401;SDS011;42299;35.160;26.100;2023-12-07T01:25:44;4.80;;;2.80;;
56401;SDS011;42299;35.160;26.100;2023-12-07T01:31:07;5.53;;;2.97;;
56401;SDS011;42299;35.160;26.100;2023-12-07T01:36:31;12.43;;;4.28;;
56401;SDS011;42299;35.160;26.100;2023-12-07T01:41:53;4.97;;;2.47;;
56401;SDS011;42299;35.160;26.100;2023-12-07T01:47:16;28.45;;;9.90;;
56401;SDS011;42299;35.160;26.100;2023-12-07T01:52:41;9.23;;;4.15;;
56401;SDS011;42299;35.160;26.100;2023-12-07T01:58:06;6.90;;;3.63;;
56401;SDS011;42299;35.160;26.100;2023-12-07T02:03:29;9.40;;;3.05;;
56401;SDS011;42299;35.160;26.100;2023-12-07T02:08:54;12.00;;;3.70;;
56401;SDS011;42299;35.160;26.100;2023-12-07T02:14:17;10.52;;;3.13;;
56401;SDS011;42299;35.160;26.100;2023-12-07T02:19:45;15.68;;;5.45;;
56401;SDS011;42299;35.160;26.100;2023-12-07T02:25:15;6.45;;;2.45;;
56401;SDS011;42299;35.160;26.100;2023-12-07T02:30:42;8.60;;;4.40;;
56401;SDS011;42299;35.160;26.100;2023-12-07T02:36:05;8.88;;;2.35;;
56401;SDS011;42299;35.160;26.100;2023-12-07T02:41:28;5.28;;;2.42;;
56401;SDS011;42299;35.160;26.100;2023-12-07T02:46:53;3.53;;;2.22;;
56401;SDS011;42299;35.160;26.100;2023-12-07T02:52:15;4.95;;;2.28;;
56401;SDS011;42299;35.160;26.100;2023-12-07T02:57:38;8.52;;;3.72;;
56401;SDS011;42299;35.160;26.100;2023-12-07T03:03:02;7.18;;;2.55;;
56401;SDS011;42299;35.160;26.100;2023-12-07T03:08:24;11.93;;;6.30;;
56401;SDS011;42299;35.160;26.100;2023-12-07T03:13:48;8.85;;;2.55;;
56401;SDS011;42299;35.160;26.100;2023-12-07T03:19:12;5.00;;;2.78;;
56401;SDS011;42299;35.160;26.100;2023-12-07T03:24:36;5.75;;;2.35;;
56401;SDS011;42299;35.160;26.100;2023-12-07T03:29:59;5.88;;;2.20;;
56401;SDS011;42299;35.160;26.100;2023-12-07T03:35:24;3.97;;;2.00;;
56401;SDS011;42299;35.160;26.100;2023-12-07T03:40:46;9.95;;;2.33;;
56401;SDS011;42299;35.160;26.100;2023-12-07T03:46:10;5.03;;;2.30;;
56401;SDS011;42299;35.160;26.100;2023-12-07T03:51:34;5.53;;;2.55;;
56401;SDS011;42299;35.160;26.100;2023-12-07T03:56:57;3.33;;;1.98;;
56401;SDS011;42299;35.160;26.100;2023-12-07T04:02:19;4.57;;;2.42;;
56401;SDS011;42299;35.160;26.100;2023-12-07T04:07:43;4.82;;;2.20;;
56401;SDS011;42299;35.160;26.100;2023-12-07T04:13:06;5.78;;;2.17;;
56401;SDS011;42299;35.160;26.100;2023-12-07T04:18:28;4.75;;;1.77;;
56401;SDS011;42299;35.160;26.100;2023-12-07T04:23:52;5.00;;;1.52;;
56401;SDS011;42299;35.160;26.100;2023-12-07T04:29:15;6.95;;;1.90;;
56401;SDS011;42299;35.160;26.100;2023-12-07T04:34:38;4.38;;;1.90;;
56401;SDS011;42299;35.160;26.100;2023-12-07T04:40:02;3.90;;;1.40;;
56401;SDS011;42299;35.160;26.100;2023-12-07T04:45:25;5.45;;;1.75;;
56401;SDS011;42299;35.160;26.100;2023-12-07T04:50:48;8.73;;;1.80;;
56401;SDS011;42299;35.160;26.100;2023-12-07T04:56:12;8.65;;;1.67;;
56401;SDS011;42299;35.160;26.100;2023-12-07T05:01:34;4.85;;;1.98;;
56401;SDS011;42299;35.160;26.100;2023-12-07T05:06:56;11.18;;;2.92;;
56401;SDS011;42299;35.160;26.100;2023-12-07T05:12:20;9.20;;;6.88;;
56401;SDS011;42299;35.160;26.100;2023-12-07T05:17:43;8.13;;;6.70;;
56401;SDS011;42299;35.160;26.100;2023-12-07T05:23:05;11.73;;;6.38;;
56401;SDS011;42299;35.160;26.100;2023-12-07T05:28:29;9.65;;;5.82;;
56401;SDS011;42299;35.160;26.100;2023-12-07T05:33:52;6.47;;;3.42;;
56401;SDS011;42299;35.160;26.100;2023-12-07T05:39:14;12.30;;;4.45;;
56401;SDS011;42299;35.160;26.100;2023-12-07T05:44:39;8.93;;;4.30;;
56401;SDS011;42299;35.160;26.100;2023-12-07T05:50:02;10.27;;;5.13;;
56401;SDS011;42299;35.160;26.100;2023-12-07T05:55:24;14.63;;;5.90;;
56401;SDS011;42299;35.160;26.100;2023-12-07T06:00:48;43.72;;;32.17;;
56401;SDS011;42299;35.160;26.100;2023-12-07T06:06:11;19.73;;;14.52;;
56401;SDS011;42299;35.160;26.100;2023-12-07T06:11:34;10.43;;;4.20;;
56401;SDS011;42299;35.160;26.100;2023-12-07T06:16:57;9.27;;;3.17;;
56401;SDS011;42299;35.160;26.100;2023-12-07T06:22:21;5.32;;;1.77;;
56401;SDS011;42299;35.160;26.100;2023-12-07T06:27:44;24.25;;;16.90;;
56401;SDS011;42299;35.160;26.100;2023-12-07T06:33:07;10.23;;;6.43;;
56401;SDS011;42299;35.160;26.100;2023-12-07T06:38:30;24.02;;;21.13;;
56401;SDS011;42299;35.160;26.100;2023-12-07T06:43:53;23.48;;;18.42;;
56401;SDS011;42299;35.160;26.100;2023-12-07T06:49:17;26.27;;;21.05;;
56401;SDS011;42299;35.160;26.100;2023-12-07T06:54:39;30.25;;;20.60;;
56401;SDS011;42299;35.160;26.100;2023-12-07T07:00:02;22.35;;;16.77;;
56401;SDS011;42299;35.160;26.100;2023-12-07T07:05:32;20.95;;;16.25;;
56401;SDS011;42299;35.160;26.100;2023-12-07T07:10:55;16.25;;;11.50;;
56401;SDS011;42299;35.160;26.100;2023-12-07T07:16:17;23.10;;;13.95;;
56401;SDS011;42299;35.160;26.100;2023-12-07T07:21:41;23.90;;;20.15;;
56401;SDS011;42299;35.160;26.100;2023-12-07T07:27:04;25.20;;;19.95;;
56401;SDS011;42299;35.160;26.100;2023-12-07T07:32:26;18.45;;;15.32;;
56401;SDS011;42299;35.160;26.100;2023-12-07T07:37:50;13.88;;;12.30;;
56401;SDS011;42299;35.160;26.100;2023-12-07T07:43:14;10.55;;;5.90;;
56401;SDS011;42299;35.160;26.100;2023-12-07T07:48:36;12.15;;;5.50;;
56401;SDS011;42299;35.160;26.100;2023-12-07T07:54:01;10.43;;;4.75;;
56401;SDS011;42299;35.160;26.100;2023-12-07T07:59:23;6.07;;;1.60;;
56401;SDS011;42299;35.160;26.100;2023-12-07T08:04:46;6.13;;;1.42;;
56401;SDS011;42299;35.160;26.100;2023-12-07T08:10:10;6.30;;;1.20;;
56401;SDS011;42299;35.160;26.100;2023-12-07T08:15:32;6.30;;;1.50;;
56401;SDS011;42299;35.160;26.100;2023-12-07T08:20:55;9.43;;;2.20;;
56401;SDS011;42299;35.160;26.100;2023-12-07T08:26:21;6.20;;;1.40;;
56401;SDS011;42299;35.160;26.100;2023-12-07T08:31:43;5.97;;;1.80;;
56401;SDS011;42299;35.160;26.100;2023-12-07T08:37:07;7.88;;;2.67;;
56401;SDS011;42299;35.160;26.100;2023-12-07T08:42:31;5.40;;;1.40;;
56401;SDS011;42299;35.160;26.100;2023-12-07T08:47:53;6.57;;;1.85;;
56401;SDS011;42299;35.160;26.100;2023-12-07T08:53:16;5.93;;;1.20;;
56401;SDS011;42299;35.160;26.100;2023-12-07T08:58:40;5.63;;;1.20;;
56401;SDS011;42299;35.160;26.100;2023-12-07T09:04:02;5.38;;;1.50;;
56401;SDS011;42299;35.160;26.100;2023-12-07T09:09:25;7.32;;;1.25;;
56401;SDS011;42299;35.160;26.100;2023-12-07T09:14:49;4.00;;;1.23;;
56401;SDS011;42299;35.160;26.100;2023-12-07T09:20:12;4.95;;;1.40;;
56401;SDS011;42299;35.160;26.100;2023-12-07T09:25:34;5.97;;;1.55;;
56401;SDS011;42299;35.160;26.100;2023-12-07T09:30:58;5.75;;;1.75;;
56401;SDS011;42299;35.160;26.100;2023-12-07T09:36:22;4.03;;;1.20;;
56401;SDS011;42299;35.160;26.100;2023-12-07T09:41:47;6.00;;;1.50;;
56401;SDS011;42299;35.160;26.100;2023-12-07T09:47:11;7.03;;;1.60;;
56401;SDS011;42299;35.160;26.100;2023-12-07T09:52:34;5.18;;;1.40;;
56401;SDS011;42299;35.160;26.100;2023-12-07T09:57:57;11.07;;;4.50;;
56401;SDS011;42299;35.160;26.100;2023-12-07T10:03:22;5.65;;;1.30;;
56401;SDS011;42299;35.160;26.100;2023-12-07T10:08:45;4.70;;;1.85;;
56401;SDS011;42299;35.160;26.100;2023-12-07T10:14:07;6.15;;;1.20;;
56401;SDS011;42299;35.160;26.100;2023-12-07T10:19:31;5.00;;;1.00;;
56401;SDS011;42299;35.160;26.100;2023-12-07T10:24:53;6.68;;;4.55;;
56401;SDS011;42299;35.160;26.100;2023-12-07T10:30:16;4.10;;;1.20;;
56401;SDS011;42299;35.160;26.100;2023-12-07T10:35:46;6.82;;;1.00;;
56401;SDS011;42299;35.160;26.100;2023-12-07T10:41:12;5.20;;;1.20;;
56401;SDS011;42299;35.160;26.100;2023-12-07T10:46:34;8.25;;;1.58;;
56401;SDS011;42299;35.160;26.100;2023-12-07T10:52:00;6.63;;;1.50;;
56401;SDS011;42299;35.160;26.100;2023-12-07T10:57:28;6.68;;;1.55;;
56401;SDS011;42299;35.160;26.100;2023-12-07T11:02:52;9.20;;;1.83;;
56401;SDS011;42299;35.160;26.100;2023-12-07T11:08:17;9.82;;;1.80;;
56401;SDS011;42299;35.160;26.100;2023-12-07T11:13:49;5.38;;;2.85;;
56401;SDS011;42299;35.160;26.100;2023-12-07T11:25:08;9.35;;;3.35;;
56401;SDS011;42299;35.160;26.100;2023-12-07T11:30:31;6.72;;;1.75;;
56401;SDS011;42299;35.160;26.100;2023-12-07T11:36:05;6.95;;;3.30;;
56401;SDS011;42299;35.160;26.100;2023-12-07T11:41:30;11.40;;;2.53;;
56401;SDS011;42299;35.160;26.100;2023-12-07T11:46:56;7.85;;;1.60;;
56401;SDS011;42299;35.160;26.100;2023-12-07T11:52:19;7.50;;;1.23;;
56401;SDS011;42299;35.160;26.100;2023-12-07T11:57:44;6.28;;;1.58;;
56401;SDS011;42299;35.160;26.100;2023-12-07T12:03:06;10.80;;;2.42;;
56401;SDS011;42299;35.160;26.100;2023-12-07T12:08:29;10.13;;;1.60;;
56401;SDS011;42299;35.160;26.100;2023-12-07T12:13:53;7.10;;;1.50;;
56401;SDS011;42299;35.160;26.100;2023-12-07T12:19:15;7.20;;;1.83;;
56401;SDS011;42299;35.160;26.100;2023-12-07T12:24:38;6.55;;;1.30;;
56401;SDS011;42299;35.160;26.100;2023-12-07T12:30:03;6.70;;;1.83;;
56401;SDS011;42299;35.160;26.100;2023-12-07T12:35:27;7.88;;;1.40;;
56401;SDS011;42299;35.160;26.100;2023-12-07T12:40:50;5.80;;;1.15;;
56401;SDS011;42299;35.160;26.100;2023-12-07T12:46:15;4.93;;;1.63;;
56401;SDS011;42299;35.160;26.100;2023-12-07T12:51:38;6.13;;;1.90;;
56401;SDS011;42299;35.160;26.100;2023-12-07T12:57:01;10.43;;;3.33;;
56401;SDS011;42299;35.160;26.100;2023-12-07T13:02:25;12.57;;;3.88;;
56401;SDS011;42299;35.160;26.100;2023-12-07T13:07:47;15.02;;;2.20;;
56401;SDS011;42299;35.160;26.100;2023-12-07T13:13:10;9.63;;;1.67;;
56401;SDS011;42299;35.160;26.100;2023-12-07T13:18:34;7.32;;;1.42;;
56401;SDS011;42299;35.160;26.100;2023-12-07T13:23:56;7.90;;;1.80;;
56401;SDS011;42299;35.160;26.100;2023-12-07T13:29:19;9.52;;;1.45;;
56401;SDS011;42299;35.160;26.100;2023-12-07T13:34:43;6.18;;;1.35;;
56401;SDS011;42299;35.160;26.100;2023-12-07T13:40:06;6.82;;;1.48;;
56401;SDS011;42299;35.160;26.100;2023-12-07T13:45:30;12.32;;;5.18;;
56401;SDS011;42299;35.160;26.100;2023-12-07T13:50:54;13.13;;;2.00;;
56401;SDS011;42299;35.160;26.100;2023-12-07T13:56:17;16.98;;;9.52;;
56401;SDS011;42299;35.160;26.100;2023-12-07T14:01:41;15.75;;;5.25;;
56401;SDS011;42299;35.160;26.100;2023-12-07T14:07:08;9.20;;;1.92;;
56401;SDS011;42299;35.160;26.100;2023-12-07T14:12:32;8.13;;;2.33;;
56401;SDS011;42299;35.160;26.100;2023-12-07T14:17:55;9.15;;;1.73;;
56401;SDS011;42299;35.160;26.100;2023-12-07T14:23:19;4.97;;;1.23;;
56401;SDS011;42299;35.160;26.100;2023-12-07T14:28:41;4.97;;;1.75;;
56401;SDS011;42299;35.160;26.100;2023-12-07T14:34:04;8.40;;;1.92;;
56401;SDS011;42299;35.160;26.100;2023-12-07T14:39:28;6.97;;;1.90;;
56401;SDS011;42299;35.160;26.100;2023-12-07T14:44:50;22.55;;;14.43;;
56401;SDS011;42299;35.160;26.100;2023-12-07T14:50:13;17.48;;;13.63;;
56401;SDS011;42299;35.160;26.100;2023-12-07T14:55:37;7.30;;;3.22;;
56401;SDS011;42299;35.160;26.100;2023-12-07T15:01:00;8.05;;;2.60;;
56401;SDS011;42299;35.160;26.100;2023-12-07T15:06:23;6.53;;;1.15;;
56401;SDS011;42299;35.160;26.100;2023-12-07T15:11:47;4.13;;;0.90;;
56401;SDS011;42299;35.160;26.100;2023-12-07T15:17:10;11.35;;;9.63;;
56401;SDS011;42299;35.160;26.100;2023-12-07T15:22:32;9.05;;;5.40;;
56401;SDS011;42299;35.160;26.100;2023-12-07T15:27:57;4.63;;;2.83;;
56401;SDS011;42299;35.160;26.100;2023-12-07T15:33:19;28.15;;;21.80;;
56401;SDS011;42299;35.160;26.100;2023-12-07T15:38:42;4.70;;;3.50;;
56401;SDS011;42299;35.160;26.100;2023-12-07T15:44:06;7.70;;;4.28;;
56401;SDS011;42299;35.160;26.100;2023-12-07T15:49:29;9.43;;;2.65;;
56401;SDS011;42299;35.160;26.100;2023-12-07T15:54:51;4.13;;;1.75;;
56401;SDS011;42299;35.160;26.100;2023-12-07T16:00:16;6.65;;;1.83;;
56401;SDS011;42299;35.160;26.100;2023-12-07T16:05:38;5.18;;;1.83;;
56401;SDS011;42299;35.160;26.100;2023-12-07T16:11:00;5.65;;;1.40;;
56401;SDS011;42299;35.160;26.100;2023-12-07T16:16:24;3.10;;;1.52;;
56401;SDS011;42299;35.160;26.100;2023-12-07T16:21:47;5.00;;;1.90;;
56401;SDS011;42299;35.160;26.100;2023-12-07T16:27:09;8.32;;;1.90;;
56401;SDS011;42299;35.160;26.100;2023-12-07T16:32:34;5.75;;;1.55;;
56401;SDS011;42299;35.160;26.100;2023-12-07T16:37:57;8.57;;;2.80;;
56401;SDS011;42299;35.160;26.100;2023-12-07T16:43:19;7.55;;;2.60;;
56401;SDS011;42299;35.160;26.100;2023-12-07T16:48:43;7.72;;;2.35;;
56401;SDS011;42299;35.160;26.100;2023-12-07T16:54:06;9.68;;;2.65;;
56401;SDS011;42299;35.160;26.100;2023-12-07T16:59:28;5.72;;;2.25;;
56401;SDS011;42299;35.160;26.100;2023-12-07T17:04:52;4.72;;;1.95;;
56401;SDS011;42299;35.160;26.100;2023-12-07T17:10:15;8.02;;;2.63;;
56401;SDS011;42299;35.160;26.100;2023-12-07T17:15:37;3.83;;;1.35;;
56401;SDS011;42299;35.160;26.100;2023-12-07T17:21:01;5.13;;;0.98;;
56401;SDS011;42299;35.160;26.100;2023-12-07T17:26:25;3.78;;;1.15;;
56401;SDS011;42299;35.160;26.100;2023-12-07T17:31:47;3.42;;;0.73;;
56401;SDS011;42299;35.160;26.100;2023-12-07T17:37:11;1.42;;;0.68;;
56401;SDS011;42299;35.160;26.100;2023-12-07T17:42:34;1.45;;;0.63;;
56401;SDS011;42299;35.160;26.100;2023-12-07T17:47:56;1.30;;;0.80;;
56401;SDS011;42299;35.160;26.100;2023-12-07T17:53:20;2.17;;;0.90;;
56401;SDS011;42299;35.160;26.100;2023-12-07T17:58:42;2.28;;;0.82;;
56401;SDS011;42299;35.160;26.100;2023-12-07T18:04:05;2.72;;;1.17;;
56401;SDS011;42299;35.160;26.100;2023-12-07T18:09:29;2.67;;;1.02;;
56401;SDS011;42299;35.160;26.100;2023-12-07T18:14:51;2.50;;;1.13;;
56401;SDS011;42299;35.160;26.100;2023-12-07T18:20:14;2.28;;;1.60;;
56401;SDS011;42299;35.160;26.100;2023-12-07T18:25:38;3.15;;;1.98;;
56401;SDS011;42299;35.160;26.100;2023-12-07T18:31:01;5.10;;;2.03;;
56401;SDS011;42299;35.160;26.100;2023-12-07T18:36:23;2.78;;;1.90;;
56401;SDS011;42299;35.160;26.100;2023-12-07T18:41:47;3.30;;;1.65;;
56401;SDS011;42299;35.160;26.100;2023-12-07T18:47:10;9.25;;;4.13;;
56401;SDS011;42299;35.160;26.100;2023-12-07T18:52:32;4.80;;;3.90;;
56401;SDS011;42299;35.160;26.100;2023-12-07T18:57:56;6.43;;;3.60;;
56401;SDS011;42299;35.160;26.100;2023-12-07T19:03:19;6.82;;;4.13;;
56401;SDS011;42299;35.160;26.100;2023-12-07T19:08:41;3.53;;;2.25;;
56401;SDS011;42299;35.160;26.100;2023-12-07T19:14:05;2.38;;;1.00;;
56401;SDS011;42299;35.160;26.100;2023-12-07T19:19:28;2.35;;;1.60;;
56401;SDS011;42299;35.160;26.100;2023-12-07T19:24:50;2.03;;;1.58;;
56401;SDS011;42299;35.160;26.100;2023-12-07T19:30:14;2.00;;;1.17;;
56401;SDS011;42299;35.160;26.100;2023-12-07T19:35:36;1.55;;;1.02;;
56401;SDS011;42299;35.160;26.100;2023-12-07T19:40:59;1.63;;;0.57;;
56401;SDS011;42299;35.160;26.100;2023-12-07T19:46:24;2.17;;;0.80;;
56401;SDS011;42299;35.160;26.100;2023-12-07T19:51:47;2.63;;;1.00;;
56401;SDS011;42299;35.160;26.100;2023-12-07T19:57:10;2.35;;;1.13;;
56401;SDS011;42299;35.160;26.100;2023-12-07T20:02:34;3.63;;;0.82;;
56401;SDS011;42299;35.160;26.100;2023-12-07T20:07:56;2.80;;;1.00;;
56401;SDS011;42299;35.160;26.100;2023-12-07T20:13:20;2.67;;;0.70;;
56401;SDS011;42299;35.160;26.100;2023-12-07T20:18:44;4.75;;;1.20;;
56401;SDS011;42299;35.160;26.100;2023-12-07T20:24:07;6.25;;;1.02;;
56401;SDS011;42299;35.160;26.100;2023-12-07T20:29:31;6.35;;;1.63;;
56401;SDS011;42299;35.160;26.100;2023-12-07T20:34:56;4.82;;;1.30;;
56401;SDS011;42299;35.160;26.100;2023-12-07T20:40:18;4.75;;;1.60;;
56401;SDS011;42299;35.160;26.100;2023-12-07T20:45:41;5.88;;;1.40;;
56401;SDS011;42299;35.160;26.100;2023-12-07T20:51:05;4.38;;;1.13;;
56401;SDS011;42299;35.160;26.100;2023-12-07T20:56:27;1.90;;;0.88;;
56401;SDS011;42299;35.160;26.100;2023-12-07T21:01:50;1.50;;;0.68;;
56401;SDS011;42299;35.160;26.100;2023-12-07T21:07:13;3.53;;;1.15;;
56401;SDS011;42299;35.160;26.100;2023-12-07T21:12:36;4.72;;;0.80;;
56401;SDS011;42299;35.160;26.100;2023-12-07T21:18:01;1.40;;;0.50;;
56401;SDS011;42299;35.160;26.100;2023-12-07T21:23:25;1.65;;;0.77;;
56401;SDS011;42299;35.160;26.100;2023-12-07T21:28:47;0.95;;;0.55;;
56401;SDS011;42299;35.160;26.100;2023-12-07T21:34:12;0.77;;;0.60;;
56401;SDS011;42299;35.160;26.100;2023-12-07T21:39:36;2.65;;;0.60;;
56401;SDS011;42299;35.160;26.100;2023-12-07T21:44:58;1.42;;;0.68;;
56401;SDS011;42299;35.160;26.100;2023-12-07T21:50:22;1.95;;;0.68;;
56401;SDS011;42299;35.160;26.100;2023-12-07T21:55:46;3.47;;;0.57;;
56401;SDS011;42299;35.160;26.100;2023-12-07T22:01:09;3.55;;;1.00;;
56401;SDS011;42299;35.160;26.100;2023-12-07T22:06:36;0.40;;;0.40;;
56401;SDS011;42299;35.160;26.100;2023-12-07T22:12:00;1.80;;;0.68;;
56401;SDS011;42299;35.160;26.100;2023-12-07T22:17:22;4.07;;;0.70;;
56401;SDS011;42299;35.160;26.100;2023-12-07T22:22:45;3.65;;;0.75;;
56401;SDS011;42299;35.160;26.100;2023-12-07T22:28:08;1.52;;;0.60;;
56401;SDS011;42299;35.160;26.100;2023-12-07T22:33:31;2.85;;;0.75;;
56401;SDS011;42299;35.160;26.100;2023-12-07T22:38:53;1.83;;;0.70;;
56401;SDS011;42299;35.160;26.100;2023-12-07T22:44:17;3.28;;;1.08;;
56401;SDS011;42299;35.160;26.100;2023-12-07T22:49:40;3.80;;;0.80;;
56401;SDS011;42299;35.160;26.100;2023-12-07T22:55:02;3.47;;;0.60;;
56401;SDS011;42299;35.160;26.100;2023-12-07T23:00:27;0.43;;;0.40;;
56401;SDS011;42299;35.160;26.100;2023-12-07T23:05:49;2.13;;;0.43;;
56401;SDS011;42299;35.160;26.100;2023-12-07T23:11:12;1.00;;;0.60;;
56401;SDS011;42299;35.160;26.100;2023-12-07T23:16:36;1.40;;;0.70;;
56401;SDS011;42299;35.160;26.100;2023-12-07T23:21:58;3.30;;;0.60;;
56401;SDS011;42299;35.160;26.100;2023-12-07T23:27:21;1.50;;;0.77;;
56401;SDS011;42299;35.160;26.100;2023-12-07T23:32:45;1.15;;;0.70;;
56401;SDS011;42299;35.160;26.100;2023-12-07T23:38:07;4.85;;;1.00;;
56401;SDS011;42299;35.160;26.100;2023-12-07T23:43:32;1.60;;;0.50;;
56401;SDS011;42299;35.160;26.100;2023-12-07T23:48:56;2.70;;;0.77;;
56401;SDS011;42299;35.160;26.100;2023-12-07T23:54:18;3.10;;;0.75;;
56401;SDS011;42299;35.160;26.100;2023-12-07T23:59:41;3.47;;;0.75;;
